createdAt,value
2023-01-09T00:00:49.550Z,56.20
2023-01-09T00:03:28.827Z,62.40
2023-01-09T00:06:01.309Z,53.40
2023-01-09T00:08:33.139Z,58.70
2023-01-09T00:11:05.012Z,55.40
2023-01-09T00:13:37.160Z,56.30
2023-01-09T00:16:10.466Z,55.90
2023-01-09T00:18:42.596Z,54.00
2023-01-09T00:21:15.861Z,60.30
2023-01-09T00:23:47.980Z,64.60
2023-01-09T00:26:21.451Z,69.00
2023-01-09T00:28:54.543Z,71.20
2023-01-09T00:31:26.406Z,75.50
2023-01-09T00:34:02.731Z,76.30
2023-01-09T00:36:34.767Z,67.50
2023-01-09T00:39:07.005Z,67.50
2023-01-09T00:41:42.203Z,66.90
2023-01-09T00:44:17.307Z,63.60
2023-01-09T00:46:56.091Z,56.30
2023-01-09T00:49:29.905Z,56.50
2023-01-09T00:52:02.720Z,58.30
2023-01-09T00:54:34.855Z,57.30
2023-01-09T00:57:07.013Z,55.10
2023-01-09T00:59:39.273Z,53.80
2023-01-09T01:02:12.540Z,54.20
2023-01-09T01:05:01.878Z,54.20
2023-01-09T01:07:39.887Z,48.90
2023-01-09T01:10:16.449Z,54.10
2023-01-09T01:12:55.532Z,50.70
2023-01-09T01:15:29.429Z,53.80
2023-01-09T01:18:02.217Z,56.00
2023-01-09T01:20:34.346Z,53.00
2023-01-09T01:23:06.367Z,52.70
2023-01-09T01:25:40.041Z,52.00
2023-01-09T01:28:12.100Z,47.10
2023-01-09T01:30:44.906Z,48.00
2023-01-09T01:33:16.762Z,54.40
2023-01-09T01:35:48.557Z,49.70
2023-01-09T01:38:20.747Z,49.60
2023-01-09T01:40:57.300Z,53.80
2023-01-09T01:43:29.723Z,48.40
2023-01-09T01:46:01.609Z,48.10
2023-01-09T01:48:34.876Z,49.00
2023-01-09T01:51:10.457Z,48.30
2023-01-09T01:53:46.561Z,51.70
2023-01-09T01:56:20.980Z,52.30
2023-01-09T01:58:56.895Z,48.90
2023-01-09T02:01:29.261Z,49.10
2023-01-09T02:04:03.160Z,49.60
2023-01-09T02:06:36.403Z,46.80
2023-01-09T02:09:09.729Z,51.90
2023-01-09T02:11:47.499Z,52.30
2023-01-09T02:14:20.833Z,51.40
2023-01-09T02:17:02.989Z,43.90
2023-01-09T02:20:13.884Z,46.30
2023-01-09T02:22:59.254Z,44.40
2023-01-09T02:25:57.392Z,45.30
2023-01-09T02:29:04.418Z,52.70
2023-01-09T02:31:44.137Z,48.10
2023-01-09T02:34:25.690Z,46.90
2023-01-09T02:37:06.625Z,46.70
2023-01-09T02:39:43.921Z,47.30
2023-01-09T02:42:20.566Z,46.50
2023-01-09T02:44:52.805Z,46.50
2023-01-09T02:47:41.868Z,45.10
2023-01-09T02:50:18.382Z,45.80
2023-01-09T02:53:18.654Z,47.40
2023-01-09T02:56:04.360Z,46.00
2023-01-09T02:58:53.576Z,47.40
2023-01-09T03:01:35.045Z,44.60
2023-01-09T03:04:14.548Z,43.10
2023-01-09T03:06:54.768Z,45.00
2023-01-09T03:09:30.481Z,44.40
2023-01-09T03:12:08.778Z,52.80
2023-01-09T03:14:44.338Z,41.90
2023-01-09T03:17:21.359Z,49.20
2023-01-09T03:19:56.038Z,42.30
2023-01-09T03:22:27.919Z,44.00
2023-01-09T03:24:59.791Z,43.50
2023-01-09T03:27:31.681Z,44.00
2023-01-09T03:30:04.117Z,44.50
2023-01-09T03:32:35.954Z,44.50
2023-01-09T03:35:11.400Z,41.30
2023-01-09T03:37:43.221Z,41.50
2023-01-09T03:40:18.976Z,41.30
2023-01-09T03:42:50.931Z,43.70
2023-01-09T03:45:22.774Z,44.80
2023-01-09T03:47:54.785Z,43.20
2023-01-09T03:50:30.137Z,45.10
2023-01-09T03:53:01.951Z,43.10
2023-01-09T03:55:33.805Z,46.10
2023-01-09T03:58:05.688Z,45.30
2023-01-09T04:00:42.079Z,41.00
2023-01-09T04:03:14.265Z,47.90
2023-01-09T04:05:46.912Z,44.80
2023-01-09T04:08:19.314Z,40.70
2023-01-09T04:10:52.163Z,46.70
2023-01-09T04:13:24.201Z,43.50
2023-01-09T04:15:56.079Z,44.90
2023-01-09T04:18:28.038Z,48.10
2023-01-09T04:20:59.857Z,47.70
2023-01-09T04:23:31.691Z,50.60
2023-01-09T04:26:04.138Z,51.40
2023-01-09T04:28:36.033Z,48.80
2023-01-09T04:31:08.130Z,47.30
2023-01-09T04:33:39.970Z,51.10
2023-01-09T04:36:13.815Z,45.30
2023-01-09T04:38:45.794Z,44.10
2023-01-09T04:41:37.613Z,41.60
2023-01-09T04:44:09.927Z,45.00
2023-01-09T04:46:41.792Z,49.70
2023-01-09T04:49:13.648Z,61.00
2023-01-09T04:51:45.668Z,70.30
2023-01-09T04:54:17.706Z,75.90
2023-01-09T04:56:49.724Z,73.60
2023-01-09T04:59:21.612Z,72.10
2023-01-09T05:01:55.009Z,83.40
2023-01-09T05:04:27.044Z,89.50
2023-01-09T05:06:58.981Z,94.20
2023-01-09T05:09:31.285Z,96.60
2023-01-09T05:12:03.222Z,90.60
2023-01-09T05:14:35.060Z,83.40
2023-01-09T05:17:06.938Z,87.30
2023-01-09T05:19:39.110Z,99.40
2023-01-09T05:22:11.037Z,100.90
2023-01-09T05:24:42.981Z,114.10
2023-01-09T05:27:14.818Z,106.40
2023-01-09T05:29:46.579Z,118.30
2023-01-09T05:32:18.457Z,110.50
2023-01-09T05:34:50.305Z,95.20
2023-01-09T05:37:22.203Z,118.20
2023-01-09T05:39:54.005Z,121.60
2023-01-09T05:42:26.028Z,117.90
2023-01-09T05:44:57.862Z,105.00
2023-01-09T05:47:29.811Z,92.10
2023-01-09T05:50:01.707Z,79.60
2023-01-09T05:52:33.595Z,79.80
2023-01-09T05:55:06.013Z,73.50
2023-01-09T05:57:37.881Z,72.80
2023-01-09T06:00:15.860Z,66.20
2023-01-09T06:02:47.758Z,62.50
2023-01-09T06:05:19.895Z,66.80
2023-01-09T06:07:51.756Z,60.60
2023-01-09T06:10:30.000Z,54.60
2023-01-09T06:13:02.036Z,56.40
2023-01-09T06:15:33.849Z,55.40
2023-01-09T06:18:05.740Z,52.40
2023-01-09T06:20:37.726Z,50.50
2023-01-09T06:23:09.603Z,54.90
2023-01-09T06:25:41.724Z,55.40
2023-01-09T06:28:13.581Z,58.10
2023-01-09T06:30:45.431Z,54.20
2023-01-09T06:33:17.272Z,50.30
2023-01-09T06:35:49.144Z,52.70
2023-01-09T06:38:21.072Z,50.80
2023-01-09T06:40:53.070Z,56.80
2023-01-09T06:43:24.968Z,48.80
2023-01-09T06:45:57.072Z,46.40
2023-01-09T06:48:29.405Z,48.90
2023-01-09T06:51:01.894Z,51.00
2023-01-09T06:53:35.181Z,52.40
2023-01-09T06:56:08.185Z,54.90
2023-01-09T06:58:40.085Z,53.10
2023-01-09T07:01:12.105Z,51.80
2023-01-09T07:03:44.408Z,51.20
2023-01-09T07:06:21.941Z,54.90
2023-01-09T07:08:54.881Z,50.50
2023-01-09T07:11:26.818Z,55.90
2023-01-09T07:13:58.774Z,52.00
2023-01-09T07:16:33.613Z,46.80
2023-01-09T07:19:05.719Z,47.60
2023-01-09T07:21:38.141Z,49.00
2023-01-09T07:24:10.194Z,50.60
2023-01-09T07:26:43.355Z,48.30
2023-01-09T07:29:15.354Z,54.50
2023-01-09T07:31:47.816Z,52.10
2023-01-09T07:34:19.843Z,47.10
2023-01-09T07:36:51.851Z,46.90
2023-01-09T07:39:23.887Z,47.80
2023-01-09T07:41:55.766Z,47.00
2023-01-09T07:44:27.774Z,49.60
2023-01-09T07:46:59.921Z,51.40
2023-01-09T07:49:32.109Z,49.50
2023-01-09T07:52:05.145Z,47.40
2023-01-09T07:54:37.171Z,47.10
2023-01-09T07:57:08.998Z,46.40
2023-01-09T07:59:40.968Z,49.70
2023-01-09T08:02:13.251Z,59.50
2023-01-09T08:04:45.246Z,57.70
2023-01-09T08:07:17.262Z,55.40
2023-01-09T08:09:49.133Z,53.10
2023-01-09T08:12:21.001Z,47.60
2023-01-09T08:14:52.883Z,48.70
2023-01-09T08:17:26.507Z,44.90
2023-01-09T08:19:58.665Z,43.80
2023-01-09T08:22:30.547Z,45.30
2023-01-09T08:25:02.496Z,47.90
2023-01-09T08:27:34.389Z,49.50
2023-01-09T08:30:17.507Z,48.30
2023-01-09T08:32:54.136Z,51.90
2023-01-09T08:35:26.059Z,48.10
2023-01-09T08:37:57.873Z,48.00
2023-01-09T08:40:31.192Z,52.80
2023-01-09T08:43:20.746Z,54.20
2023-01-09T08:46:10.328Z,48.90
2023-01-09T08:48:42.418Z,53.20
2023-01-09T08:51:14.433Z,55.20
2023-01-09T08:53:46.370Z,55.50
2023-01-09T08:56:18.328Z,58.30
2023-01-09T08:58:50.210Z,58.40
2023-01-09T09:01:22.123Z,61.60
2023-01-09T09:03:54.269Z,59.90
2023-01-09T09:06:26.305Z,65.50
2023-01-09T09:09:02.845Z,67.70
2023-01-09T09:11:35.360Z,63.70
2023-01-09T09:14:21.898Z,65.80
2023-01-09T09:16:54.208Z,59.20
2023-01-09T09:19:26.119Z,58.80
2023-01-09T09:21:58.672Z,63.70
2023-01-09T09:24:30.549Z,65.00
2023-01-09T09:28:21.631Z,67.90
2023-01-09T09:31:26.560Z,68.20
2023-01-09T09:33:59.094Z,61.60
2023-01-09T09:36:31.596Z,61.00
2023-01-09T09:39:15.150Z,61.60
2023-01-09T09:42:35.311Z,62.10
2023-01-09T09:45:20.272Z,57.20
2023-01-09T09:48:00.216Z,50.30
2023-01-09T09:50:57.649Z,54.50
2023-01-09T09:53:36.008Z,49.80
2023-01-09T09:56:11.874Z,54.20
2023-01-09T09:58:45.601Z,52.70
2023-01-09T10:01:22.083Z,55.10
2023-01-09T10:03:57.173Z,54.20
2023-01-09T10:06:32.606Z,58.50
2023-01-09T10:09:11.800Z,58.10
2023-01-09T10:11:51.332Z,56.50
2023-01-09T10:14:24.832Z,51.40
2023-01-09T10:17:21.151Z,54.60
2023-01-09T10:20:18.415Z,54.00
2023-01-09T10:22:59.499Z,53.30
2023-01-09T10:25:42.818Z,48.00
2023-01-09T10:28:33.730Z,49.80
2023-01-09T10:31:12.879Z,49.80
2023-01-09T10:33:55.997Z,51.00
2023-01-09T10:36:52.220Z,51.90
2023-01-09T10:39:30.697Z,53.50
2023-01-09T10:42:11.265Z,51.50
2023-01-09T10:44:50.459Z,59.90
2023-01-09T10:47:27.050Z,50.80
2023-01-09T10:50:00.173Z,50.50
2023-01-09T10:55:53.068Z,52.30
2023-01-09T10:58:25.960Z,50.50
2023-01-09T11:00:59.679Z,56.00
2023-01-09T11:03:31.787Z,56.50
2023-01-09T11:06:05.002Z,59.30
2023-01-09T11:08:42.190Z,57.20
2023-01-09T11:11:16.384Z,59.10
2023-01-09T11:14:06.737Z,64.00
2023-01-09T11:16:38.743Z,61.40
2023-01-09T11:19:16.594Z,67.20
2023-01-09T11:21:48.679Z,68.70
2023-01-09T11:24:31.481Z,68.70
2023-01-09T11:27:27.340Z,62.30
2023-01-09T11:30:28.926Z,59.30
2023-01-09T11:33:02.052Z,52.90
2023-01-09T11:35:36.535Z,54.60
2023-01-09T11:38:18.282Z,55.00
2023-01-09T11:40:53.303Z,56.50
2023-01-09T11:43:32.882Z,57.90
2023-01-09T11:46:07.508Z,60.30
2023-01-09T11:48:42.295Z,55.80
2023-01-09T11:51:36.961Z,56.00
2023-01-09T11:54:27.032Z,57.50
2023-01-09T11:56:59.288Z,57.00
2023-01-09T11:59:32.291Z,64.70
2023-01-09T12:02:33.195Z,64.60
2023-01-09T12:05:15.060Z,57.40
2023-01-09T12:07:58.234Z,60.90
2023-01-09T12:10:45.461Z,60.80
2023-01-09T12:13:37.051Z,57.20
2023-01-09T12:16:19.492Z,57.70
2023-01-09T12:19:05.710Z,58.70
2023-01-09T12:21:48.871Z,64.40
2023-01-09T12:24:58.443Z,62.40
2023-01-09T12:27:47.815Z,57.90
2023-01-09T12:30:33.138Z,56.50
2023-01-09T12:33:20.432Z,50.00
2023-01-09T12:36:03.109Z,55.50
2023-01-09T12:38:48.681Z,57.70
2023-01-09T12:42:04.939Z,54.40
2023-01-09T12:44:52.517Z,55.90
2023-01-09T12:47:48.248Z,46.00
2023-01-09T12:50:37.677Z,50.30
2023-01-09T12:53:19.001Z,45.70
2023-01-09T12:55:57.118Z,44.70
2023-01-09T12:58:48.893Z,48.10
2023-01-09T13:01:25.780Z,43.70
2023-01-09T13:04:27.431Z,40.00
2023-01-09T13:07:06.398Z,43.90
2023-01-09T13:09:45.686Z,40.50
2023-01-09T13:12:21.928Z,41.70
2023-01-09T13:15:00.940Z,45.00
2023-01-09T13:17:41.559Z,45.70
2023-01-09T13:20:29.708Z,42.40
2023-01-09T13:23:03.044Z,39.40
2023-01-09T13:25:43.554Z,41.10
2023-01-09T13:28:22.945Z,37.80
2023-01-09T13:31:09.917Z,38.40
2023-01-09T13:33:45.718Z,39.70
2023-01-09T13:36:28.737Z,38.70
2023-01-09T13:39:02.096Z,40.20
2023-01-09T13:42:05.105Z,36.90
2023-01-09T13:44:37.169Z,42.60
2023-01-09T13:47:19.563Z,38.30
2023-01-09T13:50:26.390Z,42.10
2023-01-09T13:53:18.837Z,39.80
2023-01-09T13:56:08.160Z,41.20
2023-01-09T13:59:00.749Z,40.90
2023-01-09T14:01:47.745Z,41.00
2023-01-09T14:04:46.807Z,41.40
2023-01-09T14:07:24.242Z,46.20
2023-01-09T14:10:02.635Z,47.30
2023-01-09T14:12:40.684Z,49.90
2023-01-09T14:15:28.252Z,52.00
2023-01-09T14:18:04.783Z,47.00
2023-01-09T14:20:40.177Z,44.80
2023-01-09T14:23:45.633Z,44.50
2023-01-09T14:26:21.683Z,41.70
2023-01-09T14:28:53.701Z,45.60
2023-01-09T14:31:33.167Z,40.20
2023-01-09T14:34:31.844Z,42.60
2023-01-09T14:37:05.611Z,38.60
2023-01-09T14:39:40.807Z,42.60
2023-01-09T14:42:19.471Z,40.70
2023-01-09T14:44:55.513Z,37.30
2023-01-09T14:47:38.468Z,40.40
2023-01-09T14:50:28.305Z,39.40
2023-01-09T14:53:05.063Z,40.00
2023-01-09T14:55:47.385Z,39.90
2023-01-09T14:58:25.380Z,39.60
2023-01-09T15:01:03.538Z,38.00
2023-01-09T15:03:39.492Z,39.80
2023-01-09T15:06:16.356Z,43.90
2023-01-09T15:08:50.531Z,45.10
2023-01-09T15:11:22.564Z,41.10
2023-01-09T15:14:00.265Z,42.20
2023-01-09T15:16:32.515Z,39.30
2023-01-09T15:19:08.145Z,42.30
2023-01-09T15:21:40.940Z,38.60
2023-01-09T15:24:27.126Z,39.20
2023-01-09T15:27:01.245Z,41.80
2023-01-09T15:29:33.153Z,42.50
2023-01-09T15:32:09.247Z,42.90
2023-01-09T15:34:44.857Z,43.80
2023-01-09T15:37:30.063Z,44.80
2023-01-09T15:40:04.305Z,47.10
2023-01-09T15:42:58.169Z,57.90
2023-01-09T15:45:35.334Z,50.40
2023-01-09T15:48:25.745Z,52.40
2023-01-09T15:51:02.556Z,55.90
2023-01-09T15:53:34.536Z,49.00
2023-01-09T15:56:16.355Z,53.50
2023-01-09T15:58:49.753Z,49.20
2023-01-09T16:01:29.939Z,56.20
2023-01-09T16:04:08.179Z,52.00
2023-01-09T16:06:45.569Z,43.70
2023-01-09T16:09:22.192Z,45.20
2023-01-09T16:11:56.180Z,45.10
2023-01-09T16:14:34.673Z,44.00
2023-01-09T16:17:08.786Z,47.20
2023-01-09T16:19:49.942Z,49.70
2023-01-09T16:22:24.402Z,43.80
2023-01-09T16:24:57.608Z,54.20
2023-01-09T16:27:32.167Z,52.80
2023-01-09T16:30:13.217Z,51.80
2023-01-09T16:32:52.693Z,44.80
2023-01-09T16:35:26.604Z,42.90
2023-01-09T16:37:59.272Z,40.80
2023-01-09T16:40:36.300Z,43.50
2023-01-09T16:43:14.759Z,44.40
2023-01-09T16:45:46.727Z,46.20
2023-01-09T16:48:22.286Z,48.20
2023-01-09T16:50:54.097Z,49.50
2023-01-09T16:53:27.292Z,46.20
2023-01-09T16:56:00.218Z,47.60
2023-01-09T16:58:35.325Z,48.40
2023-01-09T17:01:07.369Z,41.80
2023-01-09T17:03:39.385Z,44.80
2023-01-09T17:06:16.071Z,41.60
2023-01-09T17:08:48.157Z,45.50
2023-01-09T17:11:24.472Z,45.00
2023-01-09T17:13:56.308Z,46.60
2023-01-09T17:16:29.140Z,45.10
2023-01-09T17:19:01.021Z,46.30
2023-01-09T17:21:33.317Z,48.70
2023-01-09T17:24:22.915Z,52.20
2023-01-09T17:27:12.692Z,51.50
2023-01-09T17:29:44.744Z,58.90
2023-01-09T17:32:18.313Z,67.10
2023-01-09T17:34:50.249Z,63.50
2023-01-09T17:37:22.756Z,70.70
2023-01-09T17:39:59.909Z,70.40
2023-01-09T17:42:31.857Z,70.30
2023-01-09T17:45:04.192Z,72.90
2023-01-09T17:47:36.265Z,69.30
2023-01-09T17:50:18.327Z,75.90
2023-01-09T17:52:51.046Z,79.20
2023-01-09T17:55:22.958Z,73.00
2023-01-09T17:57:54.894Z,78.50
2023-01-09T18:00:39.518Z,83.20
2023-01-09T18:03:11.368Z,83.10
2023-01-09T18:05:43.620Z,66.50
2023-01-09T18:08:16.395Z,61.20
2023-01-09T18:10:51.401Z,62.00
2023-01-09T18:13:23.564Z,74.50
2023-01-09T18:15:55.410Z,87.30
2023-01-09T18:18:27.437Z,95.40
2023-01-09T18:20:59.528Z,75.00
2023-01-09T18:23:31.459Z,68.90
2023-01-09T18:26:08.060Z,67.90
2023-01-09T18:28:40.575Z,60.10
2023-01-09T18:31:13.851Z,48.40
2023-01-09T18:33:47.451Z,81.10
2023-01-09T18:36:20.179Z,180.30
2023-01-09T18:38:54.495Z,170.90
2023-01-09T18:41:26.623Z,141.80
2023-01-09T18:44:00.423Z,132.70
2023-01-09T18:46:32.622Z,115.50
2023-01-09T18:49:05.905Z,103.70
2023-01-09T18:51:37.871Z,96.10
2023-01-09T18:54:09.819Z,62.20
2023-01-09T18:56:42.061Z,72.20
2023-01-09T18:59:14.243Z,60.50
2023-01-09T19:01:46.196Z,70.20
2023-01-09T19:04:18.137Z,77.30
2023-01-09T19:06:50.562Z,78.00
2023-01-09T19:09:22.724Z,86.50
2023-01-09T19:11:54.755Z,84.50
2023-01-09T19:14:26.665Z,92.00
2023-01-09T19:16:59.439Z,111.90
2023-01-09T19:19:31.673Z,184.60
2023-01-09T19:22:04.114Z,160.80
2023-01-09T19:24:36.128Z,97.70
2023-01-09T19:27:07.956Z,82.70
2023-01-09T19:29:39.812Z,83.60
2023-01-09T19:32:13.935Z,75.90
2023-01-09T19:34:45.797Z,65.30
2023-01-09T19:37:18.350Z,59.80
2023-01-09T19:39:50.294Z,64.60
2023-01-09T19:42:22.366Z,64.30
2023-01-09T19:44:54.251Z,63.70
2023-01-09T19:47:26.316Z,65.30
2023-01-09T19:49:58.188Z,71.20
2023-01-09T19:52:30.070Z,68.60
2023-01-09T19:55:02.029Z,63.70
2023-01-09T19:57:33.884Z,72.70
2023-01-09T20:00:14.589Z,73.00
2023-01-09T20:02:46.417Z,80.40
2023-01-09T20:05:18.831Z,77.10
2023-01-09T20:07:54.006Z,68.80
2023-01-09T20:10:35.999Z,76.50
2023-01-09T20:13:07.931Z,81.10
2023-01-09T20:15:41.509Z,72.90
2023-01-09T20:18:13.522Z,61.60
2023-01-09T20:20:53.311Z,57.20
2023-01-09T20:23:27.370Z,58.70
2023-01-09T20:26:03.845Z,50.30
2023-01-09T20:28:36.410Z,55.20
2023-01-09T20:31:12.706Z,49.00
2023-01-09T20:33:45.318Z,45.80
2023-01-09T20:36:17.624Z,41.10
2023-01-09T20:38:49.469Z,41.90
2023-01-09T20:41:23.683Z,41.80
2023-01-09T20:43:58.279Z,50.30
2023-01-09T20:46:34.097Z,62.60
2023-01-09T20:49:07.881Z,74.70
2023-01-09T20:51:46.221Z,72.80
2023-01-09T20:54:21.318Z,74.10
2023-01-09T20:56:53.779Z,66.00
2023-01-09T20:59:25.626Z,70.00
2023-01-09T21:01:57.481Z,71.60
2023-01-09T21:04:31.293Z,62.50
2023-01-09T21:07:03.287Z,47.30
2023-01-09T21:09:35.117Z,43.80
2023-01-09T21:12:24.816Z,44.20
2023-01-09T21:14:57.290Z,41.90
2023-01-09T21:17:29.248Z,43.50
2023-01-09T21:20:01.312Z,45.20
2023-01-09T21:22:34.912Z,43.90
2023-01-09T21:25:08.365Z,42.50
2023-01-09T21:27:43.089Z,45.30
2023-01-09T21:30:15.486Z,41.80
2023-01-09T21:32:47.392Z,43.60
2023-01-09T21:35:19.515Z,42.60
2023-01-09T21:37:51.402Z,41.20
2023-01-09T21:40:31.236Z,47.60
2023-01-09T21:43:20.688Z,43.10
2023-01-09T21:46:15.400Z,49.30
2023-01-09T21:48:47.182Z,45.40
2023-01-09T21:51:18.990Z,47.40
2023-01-09T21:53:50.895Z,48.40
2023-01-09T21:56:23.081Z,45.70
2023-01-09T21:58:55.024Z,48.70
2023-01-09T22:01:26.851Z,54.00
2023-01-09T22:03:59.796Z,60.10
2023-01-09T22:06:31.947Z,59.80
2023-01-09T22:09:03.925Z,48.80
2023-01-09T22:11:35.885Z,48.10
2023-01-09T22:14:08.180Z,47.30
2023-01-09T22:16:40.070Z,47.00
2023-01-09T22:19:12.302Z,36.20
2023-01-09T22:21:44.152Z,40.50
2023-01-09T22:24:18.971Z,37.30
2023-01-09T22:26:51.139Z,38.80
2023-01-09T22:29:23.230Z,40.50
2023-01-09T22:31:55.165Z,42.60
2023-01-09T22:34:27.178Z,57.50
2023-01-09T22:36:59.186Z,57.40
2023-01-09T22:39:31.377Z,59.90
2023-01-09T22:42:03.185Z,60.30
2023-01-09T22:44:35.076Z,55.70
2023-01-09T22:47:07.390Z,58.30
2023-01-09T22:49:52.227Z,62.70
2023-01-09T22:52:25.165Z,66.10
2023-01-09T22:54:56.997Z,58.80
2023-01-09T22:57:28.896Z,60.80
2023-01-09T23:00:00.824Z,56.00
2023-01-09T23:02:32.756Z,60.80
2023-01-09T23:05:04.876Z,56.10
2023-01-09T23:07:37.474Z,52.00
2023-01-09T23:10:24.104Z,59.80
2023-01-09T23:12:56.542Z,62.30
2023-01-09T23:15:28.408Z,79.30
2023-01-09T23:18:00.618Z,71.30
2023-01-09T23:20:39.707Z,80.90
2023-01-09T23:23:11.536Z,75.70
2023-01-09T23:25:50.222Z,80.90
2023-01-09T23:28:23.294Z,74.00
2023-01-09T23:30:55.662Z,81.10
2023-01-09T23:33:27.552Z,93.10
2023-01-09T23:35:59.596Z,107.80
2023-01-09T23:38:31.443Z,105.00
2023-01-09T23:41:03.295Z,88.10
2023-01-09T23:43:35.737Z,89.50
2023-01-09T23:46:07.873Z,89.20
2023-01-09T23:48:40.073Z,91.30
2023-01-09T23:51:11.974Z,97.50
2023-01-09T23:53:43.864Z,110.90
2023-01-09T23:56:16.083Z,142.90
2023-01-09T23:58:47.924Z,195.90
